Troy Mills, Iowa
Current Conditions -  °F | °C
As of 9:55 PM on Sunday 23 Nov 2014 (Local Time) from KIIB Reporting Station
Overcast Overcast  
Wind Chill: 30°   Ceiling: 800
Heat Index: 39°   Visibility: 7mi
Dew Point: 37°   Wind: 20mph
Humidity: 93%   Direction: 320°NW
Pressure: 29.24"   Gusts: 29mph
Location:  42.29°N, 91.68°W
Report Text: KIIB 240355Z AUTO 32017G25KT 7SM OVC008 04/03 A2924 RMK AO2
Loading
Personal Weather Stations






























Interactive Weather Map New forecast layout! Learn more

10-Day Weather Forecast

Advertisements
Track Severe Weather on mobile